sensor_id;sensor_type;location;lat;lon;timestamp;pressure;altitude;pressure_sealevel;temperature;humidity
38786;BME280;24535;45.508;12.252;2022-07-21T00:00:23;101591.19;;;29.79;43.66
38786;BME280;24535;45.508;12.252;2022-07-21T00:02:50;101593.06;;;29.79;44.28
38786;BME280;24535;45.508;12.252;2022-07-21T00:05:16;101589.94;;;29.82;44.08
38786;BME280;24535;45.508;12.252;2022-07-21T00:14:03;101596.63;;;29.86;43.60
38786;BME280;24535;45.508;12.252;2022-07-21T00:16:36;101593.91;;;29.79;43.38
38786;BME280;24535;45.508;12.252;2022-07-21T00:19:09;101588.69;;;29.71;43.76
38786;BME280;24535;45.508;12.252;2022-07-21T00:21:35;101589.09;;;29.62;43.60
38786;BME280;24535;45.508;12.252;2022-07-21T00:24:04;101586.56;;;29.53;43.58
38786;BME280;24535;45.508;12.252;2022-07-21T00:26:30;101595.94;;;29.51;43.69
38786;BME280;24535;45.508;12.252;2022-07-21T00:28:55;101596.13;;;29.43;44.14
38786;BME280;24535;45.508;12.252;2022-07-21T00:31:21;101600.94;;;29.47;43.91
38786;BME280;24535;45.508;12.252;2022-07-21T00:33:47;101605.75;;;29.52;44.12
38786;BME280;24535;45.508;12.252;2022-07-21T00:36:16;101602.41;;;29.50;43.62
38786;BME280;24535;45.508;12.252;2022-07-21T00:38:48;101612.44;;;29.49;43.79
38786;BME280;24535;45.508;12.252;2022-07-21T00:41:14;101600.75;;;29.42;43.29
38786;BME280;24535;45.508;12.252;2022-07-21T00:43:42;101599.47;;;29.38;43.99
38786;BME280;24535;45.508;12.252;2022-07-21T00:46:08;101601.13;;;29.32;43.75
38786;BME280;24535;45.508;12.252;2022-07-21T00:48:33;101601.72;;;29.28;43.78
38786;BME280;24535;45.508;12.252;2022-07-21T00:53:40;101599.81;;;29.15;43.81
38786;BME280;24535;45.508;12.252;2022-07-21T00:56:06;101595.84;;;29.11;44.25
38786;BME280;24535;45.508;12.252;2022-07-21T00:58:41;101595.22;;;29.09;44.16
38786;BME280;24535;45.508;12.252;2022-07-21T01:01:10;101598.16;;;29.14;44.24
38786;BME280;24535;45.508;12.252;2022-07-21T01:03:44;101592.72;;;29.21;44.41
38786;BME280;24535;45.508;12.252;2022-07-21T01:06:10;101597.13;;;29.28;43.69
38786;BME280;24535;45.508;12.252;2022-07-21T01:08:35;101585.84;;;29.25;43.95
38786;BME280;24535;45.508;12.252;2022-07-21T01:11:45;101593.16;;;29.24;43.85
38786;BME280;24535;45.508;12.252;2022-07-21T01:14:15;101593.16;;;29.18;43.92
38786;BME280;24535;45.508;12.252;2022-07-21T01:16:41;101595.44;;;29.14;44.10
38786;BME280;24535;45.508;12.252;2022-07-21T01:19:17;101596.06;;;29.10;44.60
38786;BME280;24535;45.508;12.252;2022-07-21T01:21:45;101593.31;;;29.03;44.53
38786;BME280;24535;45.508;12.252;2022-07-21T01:24:11;101589.34;;;28.99;44.26
38786;BME280;24535;45.508;12.252;2022-07-21T01:26:43;101588.94;;;29.02;44.81
38786;BME280;24535;45.508;12.252;2022-07-21T01:32:30;101595.81;;;29.04;44.29
38786;BME280;24535;45.508;12.252;2022-07-21T01:34:55;101590.16;;;28.99;44.27
38786;BME280;24535;45.508;12.252;2022-07-21T01:37:28;101585.72;;;28.92;44.95
38786;BME280;24535;45.508;12.252;2022-07-21T01:39:55;101583.84;;;28.86;44.75
38786;BME280;24535;45.508;12.252;2022-07-21T01:42:39;101593.03;;;28.85;44.88
38786;BME280;24535;45.508;12.252;2022-07-21T01:45:05;101586.72;;;28.77;44.80
38786;BME280;24535;45.508;12.252;2022-07-21T01:47:31;101583.97;;;28.71;45.17
38786;BME280;24535;45.508;12.252;2022-07-21T01:50:22;101591.06;;;28.72;45.60
38786;BME280;24535;45.508;12.252;2022-07-21T01:55:26;101591.44;;;28.62;45.36
38786;BME280;24535;45.508;12.252;2022-07-21T01:57:54;101585.97;;;28.55;45.49
38786;BME280;24535;45.508;12.252;2022-07-21T02:00:19;101577.41;;;28.52;45.73
38786;BME280;24535;45.508;12.252;2022-07-21T02:02:54;101580.13;;;28.52;46.08
38786;BME280;24535;45.508;12.252;2022-07-21T02:05:20;101569.03;;;28.47;45.53
38786;BME280;24535;45.508;12.252;2022-07-21T02:07:48;101579.88;;;28.47;45.78
38786;BME280;24535;45.508;12.252;2022-07-21T02:10:14;101585.13;;;28.48;45.60
38786;BME280;24535;45.508;12.252;2022-07-21T02:15:23;101570.47;;;28.43;45.52
38786;BME280;24535;45.508;12.252;2022-07-21T02:17:48;101577.16;;;28.40;45.81
38786;BME280;24535;45.508;12.252;2022-07-21T02:20:14;101577.78;;;28.42;45.98
38786;BME280;24535;45.508;12.252;2022-07-21T02:22:39;101575.91;;;28.43;45.86
38786;BME280;24535;45.508;12.252;2022-07-21T02:25:16;101578.06;;;28.54;46.00
38786;BME280;24535;45.508;12.252;2022-07-21T02:27:42;101578.09;;;28.61;45.36
38786;BME280;24535;45.508;12.252;2022-07-21T02:30:09;101579.94;;;28.60;45.12
38786;BME280;24535;45.508;12.252;2022-07-21T02:32:35;101585.78;;;28.57;45.00
38786;BME280;24535;45.508;12.252;2022-07-21T02:35:09;101577.22;;;28.53;45.04
38786;BME280;24535;45.508;12.252;2022-07-21T02:37:36;101579.50;;;28.50;45.30
38786;BME280;24535;45.508;12.252;2022-07-21T02:40:05;101585.97;;;28.49;45.37
38786;BME280;24535;45.508;12.252;2022-07-21T02:42:30;101578.84;;;28.48;45.07
38786;BME280;24535;45.508;12.252;2022-07-21T02:44:56;101580.97;;;28.52;45.09
38786;BME280;24535;45.508;12.252;2022-07-21T02:47:21;101574.69;;;28.52;45.10
38786;BME280;24535;45.508;12.252;2022-07-21T02:49:53;101568.00;;;28.48;45.14
38786;BME280;24535;45.508;12.252;2022-07-21T02:52:27;101575.94;;;28.49;45.11
38786;BME280;24535;45.508;12.252;2022-07-21T02:54:53;101570.47;;;28.43;44.97
38786;BME280;24535;45.508;12.252;2022-07-21T02:57:18;101563.31;;;28.35;45.16
38786;BME280;24535;45.508;12.252;2022-07-21T02:59:44;101563.28;;;28.28;45.06
38786;BME280;24535;45.508;12.252;2022-07-21T03:02:12;101554.91;;;28.23;45.53
38786;BME280;24535;45.508;12.252;2022-07-21T03:04:38;101567.00;;;28.27;45.20
38786;BME280;24535;45.508;12.252;2022-07-21T03:07:03;101554.91;;;28.23;45.65
38786;BME280;24535;45.508;12.252;2022-07-21T03:09:32;101555.94;;;28.22;45.57
38786;BME280;24535;45.508;12.252;2022-07-21T03:11:57;101554.94;;;28.30;45.53
38786;BME280;24535;45.508;12.252;2022-07-21T03:14:33;101557.75;;;28.37;45.44
38786;BME280;24535;45.508;12.252;2022-07-21T03:17:05;101554.72;;;28.31;45.51
38786;BME280;24535;45.508;12.252;2022-07-21T03:19:40;101540.50;;;28.23;45.62
38786;BME280;24535;45.508;12.252;2022-07-21T03:22:05;101554.06;;;28.23;45.30
38786;BME280;24535;45.508;12.252;2022-07-21T03:34:49;101558.59;;;28.44;45.72
38786;BME280;24535;45.508;12.252;2022-07-21T03:37:15;101563.81;;;28.45;45.48
38786;BME280;24535;45.508;12.252;2022-07-21T03:39:46;101562.56;;;28.41;45.40
38786;BME280;24535;45.508;12.252;2022-07-21T03:42:12;101552.03;;;28.31;45.54
38786;BME280;24535;45.508;12.252;2022-07-21T03:44:37;101552.19;;;28.23;45.38
38786;BME280;24535;45.508;12.252;2022-07-21T03:47:03;101556.53;;;28.18;45.64
38786;BME280;24535;45.508;12.252;2022-07-21T03:49:29;101557.75;;;28.08;45.50
38786;BME280;24535;45.508;12.252;2022-07-21T03:51:54;101554.75;;;28.03;46.00
38786;BME280;24535;45.508;12.252;2022-07-21T03:54:22;101563.94;;;28.02;46.02
38786;BME280;24535;45.508;12.252;2022-07-21T03:56:49;101549.50;;;27.95;46.17
38786;BME280;24535;45.508;12.252;2022-07-21T03:59:23;101567.44;;;27.96;46.35
38786;BME280;24535;45.508;12.252;2022-07-21T04:01:52;101560.75;;;27.92;46.30
38786;BME280;24535;45.508;12.252;2022-07-21T04:04:23;101562.63;;;27.92;46.59
38786;BME280;24535;45.508;12.252;2022-07-21T04:06:54;101565.50;;;27.90;46.47
38786;BME280;24535;45.508;12.252;2022-07-21T04:11:48;101573.34;;;28.06;46.52
38786;BME280;24535;45.508;12.252;2022-07-21T04:14:13;101565.28;;;28.13;46.24
38786;BME280;24535;45.508;12.252;2022-07-21T04:16:39;101574.69;;;28.17;46.26
38786;BME280;24535;45.508;12.252;2022-07-21T04:19:04;101567.78;;;28.15;46.08
38786;BME280;24535;45.508;12.252;2022-07-21T04:21:30;101569.41;;;28.09;46.04
38786;BME280;24535;45.508;12.252;2022-07-21T04:24:02;101576.88;;;28.07;46.32
38786;BME280;24535;45.508;12.252;2022-07-21T04:26:30;101569.31;;;27.96;46.45
38786;BME280;24535;45.508;12.252;2022-07-21T04:29:02;101578.00;;;27.91;46.79
38786;BME280;24535;45.508;12.252;2022-07-21T04:31:33;101576.34;;;27.90;47.23
38786;BME280;24535;45.508;12.252;2022-07-21T04:33:59;101583.88;;;27.95;47.03
38786;BME280;24535;45.508;12.252;2022-07-21T04:36:24;101577.47;;;28.02;46.89
38786;BME280;24535;45.508;12.252;2022-07-21T04:38:59;101580.63;;;28.06;46.67
38786;BME280;24535;45.508;12.252;2022-07-21T04:41:42;101576.88;;;28.07;46.58
38786;BME280;24535;45.508;12.252;2022-07-21T04:44:08;101572.91;;;28.03;46.59
38786;BME280;24535;45.508;12.252;2022-07-21T04:46:33;101578.31;;;28.03;46.73
38786;BME280;24535;45.508;12.252;2022-07-21T04:48:59;101581.03;;;28.03;46.59
38786;BME280;24535;45.508;12.252;2022-07-21T04:51:33;101583.34;;;28.06;46.93
38786;BME280;24535;45.508;12.252;2022-07-21T04:54:05;101590.88;;;28.10;46.96
38786;BME280;24535;45.508;12.252;2022-07-21T04:56:30;101587.56;;;28.15;46.80
38786;BME280;24535;45.508;12.252;2022-07-21T04:58:58;101576.34;;;28.18;46.44
38786;BME280;24535;45.508;12.252;2022-07-21T05:01:23;101577.00;;;28.20;46.51
38786;BME280;24535;45.508;12.252;2022-07-21T05:07:15;101573.25;;;28.21;46.21
38786;BME280;24535;45.508;12.252;2022-07-21T05:09:40;101582.25;;;28.28;46.63
38786;BME280;24535;45.508;12.252;2022-07-21T05:12:06;101591.97;;;28.44;46.54
38786;BME280;24535;45.508;12.252;2022-07-21T05:14:31;101590.38;;;28.56;46.87
38786;BME280;24535;45.508;12.252;2022-07-21T05:16:57;101580.19;;;28.65;46.31
38786;BME280;24535;45.508;12.252;2022-07-21T05:19:22;101596.09;;;28.75;46.43
38786;BME280;24535;45.508;12.252;2022-07-21T05:21:48;101592.34;;;28.76;46.05
38786;BME280;24535;45.508;12.252;2022-07-21T05:24:13;101588.16;;;28.73;45.43
38786;BME280;24535;45.508;12.252;2022-07-21T05:26:39;101592.94;;;28.71;45.36
38786;BME280;24535;45.508;12.252;2022-07-21T05:29:05;101578.50;;;28.64;45.40
38786;BME280;24535;45.508;12.252;2022-07-21T05:31:33;101585.81;;;28.64;45.61
38786;BME280;24535;45.508;12.252;2022-07-21T05:33:59;101588.53;;;28.64;45.44
38786;BME280;24535;45.508;12.252;2022-07-21T05:36:24;101592.94;;;28.65;45.53
38786;BME280;24535;45.508;12.252;2022-07-21T05:38:56;101590.63;;;28.68;45.93
38786;BME280;24535;45.508;12.252;2022-07-21T05:41:21;101592.97;;;28.78;45.51
38786;BME280;24535;45.508;12.252;2022-07-21T05:46:15;101597.59;;;28.84;45.16
38786;BME280;24535;45.508;12.252;2022-07-21T05:48:40;101597.59;;;28.84;44.99
38786;BME280;24535;45.508;12.252;2022-07-21T05:51:06;101605.75;;;28.91;45.17
38786;BME280;24535;45.508;12.252;2022-07-21T05:58:49;101595.44;;;29.14;45.07
38786;BME280;24535;45.508;12.252;2022-07-21T06:01:17;101608.44;;;29.25;44.53
38786;BME280;24535;45.508;12.252;2022-07-21T06:03:55;101610.97;;;29.34;44.27
38786;BME280;24535;45.508;12.252;2022-07-21T06:09:45;101592.19;;;29.45;44.17
38786;BME280;24535;45.508;12.252;2022-07-21T06:12:10;101600.56;;;29.57;44.42
38786;BME280;24535;45.508;12.252;2022-07-21T06:14:35;101600.59;;;29.70;44.66
38786;BME280;24535;45.508;12.252;2022-07-21T06:17:01;101599.97;;;29.75;44.28
38786;BME280;24535;45.508;12.252;2022-07-21T06:19:26;101590.75;;;29.76;43.71
38786;BME280;24535;45.508;12.252;2022-07-21T06:21:55;101597.22;;;29.81;43.64
38786;BME280;24535;45.508;12.252;2022-07-21T06:24:21;101596.63;;;29.86;43.56
38786;BME280;24535;45.508;12.252;2022-07-21T06:26:48;101597.66;;;29.85;43.84
38786;BME280;24535;45.508;12.252;2022-07-21T06:29:14;101599.34;;;29.93;43.50
38786;BME280;24535;45.508;12.252;2022-07-21T06:31:39;101601.84;;;30.01;43.68
38786;BME280;24535;45.508;12.252;2022-07-21T06:34:08;101603.91;;;30.12;43.89
38786;BME280;24535;45.508;12.252;2022-07-21T06:36:34;101606.25;;;30.15;43.42
38786;BME280;24535;45.508;12.252;2022-07-21T06:38:59;101603.53;;;30.15;43.22
38786;BME280;24535;45.508;12.252;2022-07-21T06:41:25;101602.06;;;30.19;43.34
38786;BME280;24535;45.508;12.252;2022-07-21T06:43:50;101596.81;;;30.24;43.11
38786;BME280;24535;45.508;12.252;2022-07-21T06:46:16;101598.50;;;30.32;43.26
38786;BME280;24535;45.508;12.252;2022-07-21T06:48:41;101602.69;;;30.35;43.43
38786;BME280;24535;45.508;12.252;2022-07-21T06:53:35;101599.97;;;30.35;42.82
38786;BME280;24535;45.508;12.252;2022-07-21T06:56:00;101607.47;;;30.39;43.00
38786;BME280;24535;45.508;12.252;2022-07-21T06:58:26;101610.81;;;30.41;43.09
38786;BME280;24535;45.508;12.252;2022-07-21T07:00:52;101614.13;;;30.50;42.69
38786;BME280;24535;45.508;12.252;2022-07-21T07:03:18;101600.34;;;30.51;42.73
38786;BME280;24535;45.508;12.252;2022-07-21T07:05:45;101612.66;;;30.61;42.76
38786;BME280;24535;45.508;12.252;2022-07-21T07:08:12;101609.69;;;30.62;42.50
38786;BME280;24535;45.508;12.252;2022-07-21T07:10:42;101618.91;;;30.74;41.87
38786;BME280;24535;45.508;12.252;2022-07-21T07:13:17;101612.97;;;30.91;41.80
38786;BME280;24535;45.508;12.252;2022-07-21T07:26:09;101626.44;;;31.62;38.95
38786;BME280;24535;45.508;12.252;2022-07-21T07:28:35;101616.38;;;31.63;39.36
38786;BME280;24535;45.508;12.252;2022-07-21T07:31:00;101620.53;;;31.65;39.08
38786;BME280;24535;45.508;12.252;2022-07-21T07:33:26;101615.69;;;31.67;38.68
38786;BME280;24535;45.508;12.252;2022-07-21T07:35:53;101614.00;;;31.73;38.32
38786;BME280;24535;45.508;12.252;2022-07-21T07:38:20;101617.94;;;31.77;38.42
38786;BME280;24535;45.508;12.252;2022-07-21T07:40:49;101615.00;;;31.79;39.08
38786;BME280;24535;45.508;12.252;2022-07-21T07:43:14;101610.16;;;31.81;38.27
38786;BME280;24535;45.508;12.252;2022-07-21T07:45:40;101608.28;;;31.81;37.85
38786;BME280;24535;45.508;12.252;2022-07-21T07:48:14;101601.94;;;31.87;37.53
38786;BME280;24535;45.508;12.252;2022-07-21T07:50:40;101606.91;;;31.97;38.32
38786;BME280;24535;45.508;12.252;2022-07-21T07:58:55;101616.97;;;33.13;37.21
38786;BME280;24535;45.508;12.252;2022-07-21T08:01:20;101613.59;;;33.60;37.26
38786;BME280;24535;45.508;12.252;2022-07-21T08:03:50;101608.69;;;34.04;36.90
38786;BME280;24535;45.508;12.252;2022-07-21T08:06:15;101606.75;;;34.51;36.53
38786;BME280;24535;45.508;12.252;2022-07-21T08:08:41;101613.81;;;34.99;35.20
38786;BME280;24535;45.508;12.252;2022-07-21T08:11:06;101604.81;;;35.32;34.59
38786;BME280;24535;45.508;12.252;2022-07-21T08:13:35;101607.88;;;35.64;32.72
38786;BME280;24535;45.508;12.252;2022-07-21T08:16:01;101603.16;;;35.94;32.10
38786;BME280;24535;45.508;12.252;2022-07-21T08:18:27;101610.66;;;36.37;33.07
38786;BME280;24535;45.508;12.252;2022-07-21T08:20:59;101609.00;;;36.75;31.90
38786;BME280;24535;45.508;12.252;2022-07-21T08:23:30;101599.50;;;37.09;30.73
38786;BME280;24535;45.508;12.252;2022-07-21T08:25:56;101600.69;;;37.41;30.50
38786;BME280;24535;45.508;12.252;2022-07-21T08:28:22;101604.16;;;37.63;30.01
38786;BME280;24535;45.508;12.252;2022-07-21T08:30:47;101598.44;;;37.70;29.59
38786;BME280;24535;45.508;12.252;2022-07-21T08:33:15;101599.00;;;37.72;29.70
38786;BME280;24535;45.508;12.252;2022-07-21T08:35:41;101594.28;;;37.67;28.96
38786;BME280;24535;45.508;12.252;2022-07-21T08:38:08;101599.44;;;37.58;29.73
38786;BME280;24535;45.508;12.252;2022-07-21T08:40:37;101593.28;;;37.46;29.26
38786;BME280;24535;45.508;12.252;2022-07-21T08:43:05;101592.59;;;37.34;29.27
38786;BME280;24535;45.508;12.252;2022-07-21T08:45:34;101587.84;;;37.24;29.87
38786;BME280;24535;45.508;12.252;2022-07-21T08:48:00;101594.06;;;37.15;30.15
38786;BME280;24535;45.508;12.252;2022-07-21T08:50:39;101591.69;;;36.96;29.52
38786;BME280;24535;45.508;12.252;2022-07-21T08:53:07;101598.38;;;36.83;30.39
38786;BME280;24535;45.508;12.252;2022-07-21T08:55:38;101590.00;;;36.73;30.21
38786;BME280;24535;45.508;12.252;2022-07-21T08:58:07;101590.72;;;36.63;30.08
38786;BME280;24535;45.508;12.252;2022-07-21T09:00:33;101585.88;;;36.49;30.24
38786;BME280;24535;45.508;12.252;2022-07-21T09:03:23;101590.69;;;36.42;29.90
38786;BME280;24535;45.508;12.252;2022-07-21T09:06:19;101588.31;;;36.28;29.73
38786;BME280;24535;45.508;12.252;2022-07-21T09:08:49;101592.91;;;36.23;28.99
38786;BME280;24535;45.508;12.252;2022-07-21T09:11:26;101591.66;;;36.13;29.32
38786;BME280;24535;45.508;12.252;2022-07-21T09:14:13;101590.44;;;36.04;30.20
38786;BME280;24535;45.508;12.252;2022-07-21T09:16:46;101585.38;;;35.79;30.35
38786;BME280;24535;45.508;12.252;2022-07-21T09:19:35;101576.06;;;35.63;30.13
38786;BME280;24535;45.508;12.252;2022-07-21T09:22:05;101575.59;;;35.50;30.67
38786;BME280;24535;45.508;12.252;2022-07-21T09:24:33;101578.38;;;35.38;30.53
38786;BME280;24535;45.508;12.252;2022-07-21T09:29:38;101578.00;;;35.17;30.96
38786;BME280;24535;45.508;12.252;2022-07-21T09:32:15;101578.88;;;35.06;31.29
38786;BME280;24535;45.508;12.252;2022-07-21T09:34:46;101580.09;;;34.99;31.38
38786;BME280;24535;45.508;12.252;2022-07-21T09:37:12;101577.63;;;34.85;30.98
38786;BME280;24535;45.508;12.252;2022-07-21T09:39:56;101575.75;;;34.74;31.17
38786;BME280;24535;45.508;12.252;2022-07-21T09:42:29;101575.88;;;34.67;30.87
38786;BME280;24535;45.508;12.252;2022-07-21T09:45:02;101576.63;;;34.63;31.24
38786;BME280;24535;45.508;12.252;2022-07-21T09:47:29;101570.59;;;34.49;31.93
38786;BME280;24535;45.508;12.252;2022-07-21T09:53:47;101564.03;;;34.38;32.45
38786;BME280;24535;45.508;12.252;2022-07-21T09:58:49;101572.03;;;34.28;32.34
38786;BME280;24535;45.508;12.252;2022-07-21T10:01:15;101570.59;;;34.26;32.66
38786;BME280;24535;45.508;12.252;2022-07-21T10:03:46;101561.56;;;34.25;32.78
38786;BME280;24535;45.508;12.252;2022-07-21T10:06:14;101568.47;;;34.28;32.64
38786;BME280;24535;45.508;12.252;2022-07-21T10:08:41;101572.25;;;34.27;32.14
38786;BME280;24535;45.508;12.252;2022-07-21T10:11:08;101576.44;;;34.29;32.25
38786;BME280;24535;45.508;12.252;2022-07-21T10:13:35;101570.34;;;34.27;32.43
38786;BME280;24535;45.508;12.252;2022-07-21T10:16:13;101570.41;;;34.15;32.58
38786;BME280;24535;45.508;12.252;2022-07-21T10:21:36;101561.38;;;34.03;32.43
38786;BME280;24535;45.508;12.252;2022-07-21T10:24:04;101563.03;;;34.04;32.52
38786;BME280;24535;45.508;12.252;2022-07-21T10:26:30;101565.16;;;34.02;32.39
38786;BME280;24535;45.508;12.252;2022-07-21T10:28:56;101566.59;;;34.05;32.26
38786;BME280;24535;45.508;12.252;2022-07-21T10:31:25;101568.03;;;34.07;32.47
38786;BME280;24535;45.508;12.252;2022-07-21T10:33:57;101563.84;;;34.05;31.78
38786;BME280;24535;45.508;12.252;2022-07-21T10:41:44;101563.75;;;34.00;31.51
38786;BME280;24535;45.508;12.252;2022-07-21T10:47:15;101571.59;;;34.08;30.88
38786;BME280;24535;45.508;12.252;2022-07-21T10:49:53;101555.41;;;34.06;31.12
38786;BME280;24535;45.508;12.252;2022-07-21T10:58:25;101552.91;;;34.05;30.93
38786;BME280;24535;45.508;12.252;2022-07-21T11:00:57;101553.16;;;34.03;31.78
38786;BME280;24535;45.508;12.252;2022-07-21T11:03:40;101548.84;;;33.95;31.93
38786;BME280;24535;45.508;12.252;2022-07-21T11:14:09;101556.72;;;34.04;31.33
38786;BME280;24535;45.508;12.252;2022-07-21T11:19:31;101549.25;;;33.99;31.86
38786;BME280;24535;45.508;12.252;2022-07-21T11:24:29;101538.97;;;33.94;32.15
38786;BME280;24535;45.508;12.252;2022-07-21T11:27:03;101541.34;;;33.91;31.88
38786;BME280;24535;45.508;12.252;2022-07-21T11:29:30;101535.66;;;33.92;32.05
38786;BME280;24535;45.508;12.252;2022-07-21T11:31:56;101539.22;;;33.93;32.64
38786;BME280;24535;45.508;12.252;2022-07-21T11:34:24;101537.91;;;33.95;32.24
38786;BME280;24535;45.508;12.252;2022-07-21T11:37:01;101536.41;;;34.00;32.04
38786;BME280;24535;45.508;12.252;2022-07-21T11:39:27;101526.28;;;34.00;32.06
38786;BME280;24535;45.508;12.252;2022-07-21T11:41:52;101526.38;;;34.05;31.61
38786;BME280;24535;45.508;12.252;2022-07-21T11:47:41;101528.03;;;34.06;31.46
38786;BME280;24535;45.508;12.252;2022-07-21T11:50:09;101531.28;;;34.03;32.13
38786;BME280;24535;45.508;12.252;2022-07-21T11:52:45;101523.53;;;34.00;32.34
38786;BME280;24535;45.508;12.252;2022-07-21T11:55:10;101522.56;;;33.94;31.90
38786;BME280;24535;45.508;12.252;2022-07-21T11:57:44;101526.38;;;33.93;31.67
38786;BME280;24535;45.508;12.252;2022-07-21T12:00:11;101522.81;;;33.93;31.82
38786;BME280;24535;45.508;12.252;2022-07-21T12:05:12;101520.06;;;33.93;30.49
38786;BME280;24535;45.508;12.252;2022-07-21T12:07:49;101521.63;;;34.01;30.57
38786;BME280;24535;45.508;12.252;2022-07-21T12:10:24;101519.16;;;33.99;29.95
38786;BME280;24535;45.508;12.252;2022-07-21T12:13:03;101512.72;;;34.05;29.08
38786;BME280;24535;45.508;12.252;2022-07-21T12:15:36;101511.16;;;34.09;29.74
38786;BME280;24535;45.508;12.252;2022-07-21T12:18:07;101513.41;;;34.12;29.02
38786;BME280;24535;45.508;12.252;2022-07-21T12:20:38;101507.69;;;34.14;28.48
38786;BME280;24535;45.508;12.252;2022-07-21T12:23:26;101507.69;;;34.26;28.27
38786;BME280;24535;45.508;12.252;2022-07-21T12:25:53;101510.50;;;34.31;27.58
38786;BME280;24535;45.508;12.252;2022-07-21T12:28:42;101508.38;;;34.33;28.42
38786;BME280;24535;45.508;12.252;2022-07-21T12:31:13;101508.59;;;34.31;28.56
38786;BME280;24535;45.508;12.252;2022-07-21T12:33:41;101512.19;;;34.32;28.64
38786;BME280;24535;45.508;12.252;2022-07-21T12:36:08;101510.50;;;34.31;28.49
38786;BME280;24535;45.508;12.252;2022-07-21T12:41:44;101498.53;;;34.20;29.96
38786;BME280;24535;45.508;12.252;2022-07-21T12:44:09;101504.13;;;34.13;29.51
38786;BME280;24535;45.508;12.252;2022-07-21T12:46:35;101495.81;;;34.08;29.63
38786;BME280;24535;45.508;12.252;2022-07-21T12:49:08;101498.47;;;34.03;29.52
38786;BME280;24535;45.508;12.252;2022-07-21T12:51:34;101495.94;;;34.02;29.85
38786;BME280;24535;45.508;12.252;2022-07-21T12:54:00;101494.53;;;33.99;30.45
38786;BME280;24535;45.508;12.252;2022-07-21T12:56:31;101497.94;;;33.94;30.50
38786;BME280;24535;45.508;12.252;2022-07-21T12:58:59;101501.19;;;33.91;30.44
38786;BME280;24535;45.508;12.252;2022-07-21T13:01:29;101495.34;;;33.88;30.58
38786;BME280;24535;45.508;12.252;2022-07-21T13:06:30;101496.41;;;33.87;29.12
38786;BME280;24535;45.508;12.252;2022-07-21T13:08:56;101485.47;;;33.87;29.48
38786;BME280;24535;45.508;12.252;2022-07-21T13:11:21;101481.44;;;33.89;29.28
38786;BME280;24535;45.508;12.252;2022-07-21T13:13:48;101485.81;;;33.90;29.91
38786;BME280;24535;45.508;12.252;2022-07-21T13:16:15;101491.06;;;33.92;28.92
38786;BME280;24535;45.508;12.252;2022-07-21T13:23:51;101482.34;;;33.95;28.61
38786;BME280;24535;45.508;12.252;2022-07-21T13:26:16;101477.53;;;33.97;29.61
38786;BME280;24535;45.508;12.252;2022-07-21T13:28:42;101476.06;;;33.94;29.74
38786;BME280;24535;45.508;12.252;2022-07-21T13:31:07;101474.41;;;33.93;29.52
38786;BME280;24535;45.508;12.252;2022-07-21T13:33:34;101479.19;;;33.98;29.10
38786;BME280;24535;45.508;12.252;2022-07-21T13:36:06;101481.69;;;34.00;29.37
38786;BME280;24535;45.508;12.252;2022-07-21T13:38:32;101476.44;;;33.98;29.13
38786;BME280;24535;45.508;12.252;2022-07-21T13:41:10;101471.09;;;34.03;29.36
38786;BME280;24535;45.508;12.252;2022-07-21T13:43:36;101466.13;;;34.00;29.13
38786;BME280;24535;45.508;12.252;2022-07-21T13:48:37;101468.81;;;34.12;27.80
38786;BME280;24535;45.508;12.252;2022-07-21T14:03:56;101453.09;;;34.19;27.77
38786;BME280;24535;45.508;12.252;2022-07-21T14:06:28;101451.69;;;34.16;28.62
38786;BME280;24535;45.508;12.252;2022-07-21T14:08:54;101440.38;;;34.13;27.75
38786;BME280;24535;45.508;12.252;2022-07-21T14:11:23;101440.38;;;34.13;27.79
38786;BME280;24535;45.508;12.252;2022-07-21T14:13:49;101442.41;;;34.17;28.18
38786;BME280;24535;45.508;12.252;2022-07-21T14:16:15;101435.16;;;34.11;28.72
38786;BME280;24535;45.508;12.252;2022-07-21T14:18:41;101444.78;;;34.14;27.68
38786;BME280;24535;45.508;12.252;2022-07-21T14:21:10;101431.00;;;34.09;27.14
38786;BME280;24535;45.508;12.252;2022-07-21T14:23:35;101435.00;;;34.18;26.98
38786;BME280;24535;45.508;12.252;2022-07-21T14:26:01;101438.09;;;34.22;26.98
38786;BME280;24535;45.508;12.252;2022-07-21T14:28:30;101432.53;;;34.16;27.28
38786;BME280;24535;45.508;12.252;2022-07-21T14:30:55;101439.09;;;34.15;28.08
38786;BME280;24535;45.508;12.252;2022-07-21T14:33:21;101440.13;;;34.14;28.12
38786;BME280;24535;45.508;12.252;2022-07-21T14:35:46;101434.31;;;34.11;28.20
38786;BME280;24535;45.508;12.252;2022-07-21T14:38:14;101443.94;;;34.13;27.21
38786;BME280;24535;45.508;12.252;2022-07-21T14:40:41;101435.50;;;34.15;28.49
38786;BME280;24535;45.508;12.252;2022-07-21T14:43:06;101430.75;;;34.10;28.21
38786;BME280;24535;45.508;12.252;2022-07-21T14:45:32;101430.66;;;34.05;28.84
38786;BME280;24535;45.508;12.252;2022-07-21T14:48:01;101434.94;;;34.01;29.20
38786;BME280;24535;45.508;12.252;2022-07-21T14:50:27;101437.56;;;33.96;28.48
38786;BME280;24535;45.508;12.252;2022-07-21T14:52:54;101429.34;;;33.96;28.40
38786;BME280;24535;45.508;12.252;2022-07-21T14:55:24;101426.38;;;33.98;28.63
38786;BME280;24535;45.508;12.252;2022-07-21T14:57:53;101421.75;;;33.98;28.28
38786;BME280;24535;45.508;12.252;2022-07-21T15:00:22;101424.72;;;33.96;28.98
38786;BME280;24535;45.508;12.252;2022-07-21T15:03:20;101420.53;;;33.94;28.99